Погода Конголана неделю

Карас, Намибия

22 - 28 июля
  • 22июля
    Сегодня
    +15°
    +32°
    Ясно и безоблачно
    ВремяПогодаТемператураВлажностьДавлениеВетер, м/сВероятность осадков
    02:00Ясно и безоблачно+11°C42 %694 мм2.5 м/с0 %
    05:00Ясно и безоблачно+8°C57 %693 мм1.6 м/с0 %
    08:00Ясно и безоблачно+17°C41 %697 мм0.2 м/с0 %
    11:00Ясно и безоблачно+28°C17 %699 мм0.4 м/с0 %
    14:00Ясно и безоблачно+31°C11 %697 мм0.6 м/с0 %
    17:00Ясно и безоблачно+30°C11 %697 мм2.2 м/с0 %
    20:00Ясно и безоблачно+22°C22 %696 мм2.2 м/с0 %
    23:00Ясно и безоблачно+19°C28 %697 мм2.3 м/с0 %
  • 23июля
    Вторник
    +15°
    +31°
    Ясно и безоблачно
    ВремяПогодаТемператураВлажностьДавлениеВетер, м/сВероятность осадков
    02:00Ясно и безоблачно+18°C43 %697 мм2.7 м/с0 %
    05:00Ясно и безоблачно+16°C52 %696 мм2.5 м/с0 %
    08:00Ясно и безоблачно+18°C39 %699 мм0.2 м/с0 %
    11:00Ясно и безоблачно+28°C16 %700 мм0.5 м/с0 %
    14:00Ясно и безоблачно+31°C11 %699 мм0.6 м/с0 %
    17:00Ясно и безоблачно+30°C10 %698 мм2.2 м/с0 %
    20:00Ясно и безоблачно+26°C13 %698 мм1.1 м/с0 %
    23:00Ясно и безоблачно+21°C24 %698 мм3.6 м/с0 %
  • 24июля
    Среда
    +13°
    +32°
    Ясно и безоблачно
    ВремяПогодаТемператураВлажностьДавлениеВетер, м/сВероятность осадков
    02:00Ясно и безоблачно+19°C35 %697 мм2.9 м/с0 %
    05:00Ясно и безоблачно+17°C44 %696 мм2.0 м/с0 %
    08:00Ясно и безоблачно+18°C48 %698 мм0.1 м/с0 %
    11:00Ясно и безоблачно+28°C17 %700 мм0.4 м/с0 %
    14:00Ясно и безоблачно+31°C9 %697 мм0.6 м/с0 %
    17:00Ясно и безоблачно+30°C10 %696 мм1.8 м/с0 %
    20:00Ясно и безоблачно+23°C20 %695 мм2.1 м/с0 %
    23:00Ясно и безоблачно+20°C28 %695 мм0.6 м/с0 %
  • 25июля
    Четверг
    +15°
    +32°
    Ясно и безоблачно
    ВремяПогодаТемператураВлажностьДавлениеВетер, м/сВероятность осадков
    02:00Ясно и безоблачно+17°C45 %694 мм0.6 м/с0 %
    05:00Ясно и безоблачно+15°C58 %694 мм1.2 м/с0 %
    08:00Ясно и безоблачно+17°C55 %695 мм0.1 м/с0 %
    11:00Ясно и безоблачно+28°C15 %697 мм0.3 м/с0 %
    14:00Ясно и безоблачно+31°C8 %695 мм0.5 м/с0 %
    17:00Ясно и безоблачно+31°C9 %694 мм0.4 м/с0 %
    20:00Ясно и безоблачно+25°C15 %694 мм1.9 м/с0 %
    23:00Ясно и безоблачно+20°C18 %694 мм1.5 м/с0 %
  • 26июля
    Пятница
    +13°
    +32°
    Ясно и безоблачно
    ВремяПогодаТемператураВлажностьДавлениеВетер, м/сВероятность осадков
    02:00Ясно и безоблачно+18°C29 %692 мм1.1 м/с0 %
    05:00Ясно и безоблачно+16°C41 %692 мм1.6 м/с0 %
    08:00Ясно и безоблачно+17°C43 %694 мм0.1 м/с0 %
    11:00Ясно и безоблачно+29°C11 %696 мм0.4 м/с0 %
    14:00Ясно и безоблачно+32°C5 %694 мм0.6 м/с0 %
    17:00Ясно и безоблачно+31°C6 %693 мм0.7 м/с0 %
    20:00Ясно и безоблачно+24°C11 %692 мм2.3 м/с0 %
    23:00Ясно и безоблачно+19°C19 %692 мм2.5 м/с0 %
Мы используем cookies
Соглашаюсь